Time;durP1;ratioP1;P1;durP2;ratioP2;P2;SDS_P1;SDS_P2;PMS_P1;PMS_P2;Temp;Humidity;BMP_temperature;BMP_pressure;BME280_temperature;BME280_humidity;BME280_pressure;Samples;Min_cycle;Max_cycle;Signal;HPM_P1;HPM_P2
2022/07/08 00:00:21;;;;;;;12.55;2.45;;;;;;;17.32;59.47;102548.34;5022305;28;20057;-64
2022/07/08 00:02:48;;;;;;;8.05;2.10;;;;;;;17.43;59.03;102537.78;5017677;28;20053;-64
2022/07/08 00:05:15;;;;;;;9.05;2.10;;;;;;;17.41;59.01;102546.44;5029212;28;20049;-65
2022/07/08 00:07:42;;;;;;;14.68;2.45;;;;;;;17.32;59.01;102545.56;5045312;28;20060;-65
2022/07/08 00:10:10;;;;;;;14.73;2.72;;;;;;;17.26;58.98;102543.22;5040888;28;20069;-65
2022/07/08 00:12:37;;;;;;;7.85;2.35;;;;;;;16.96;59.97;102541.09;5033946;28;20053;-65
2022/07/08 00:15:05;;;;;;;12.00;2.42;;;;;;;17.12;59.74;102548.78;5034079;28;20050;-65
2022/07/08 00:17:33;;;;;;;14.13;2.42;;;;;;;16.99;59.69;102555.22;5030891;28;20060;-65
2022/07/08 00:20:00;;;;;;;17.25;2.58;;;;;;;16.97;59.55;102557.50;5035149;28;20061;-65
2022/07/08 00:22:27;;;;;;;11.65;2.35;;;;;;;16.88;59.82;102559.34;5035456;28;20060;-65
2022/07/08 00:24:55;;;;;;;14.30;2.50;;;;;;;16.88;60.03;102549.06;5020194;28;20049;-65
2022/07/08 00:27:22;;;;;;;12.95;2.30;;;;;;;16.92;60.01;102549.25;5028455;28;20053;-65
2022/07/08 00:29:49;;;;;;;14.88;2.15;;;;;;;16.96;60.03;102546.66;5034373;28;20515;-65
2022/07/08 00:32:18;;;;;;;17.40;2.67;;;;;;;16.99;60.01;102552.44;5025587;28;20049;-64
2022/07/08 00:34:50;;;;;;;15.13;2.67;;;;;;;16.88;60.35;102553.00;5020195;28;20425;-64
2022/07/08 00:37:17;;;;;;;7.10;2.00;;;;;;;16.69;61.05;102553.91;5038852;28;20687;-64
2022/07/08 00:39:45;;;;;;;8.23;2.10;;;;;;;16.88;60.89;102541.84;5042250;28;20057;-64
2022/07/08 00:42:12;;;;;;;14.68;2.88;;;;;;;16.87;60.48;102538.22;5045929;28;20424;-65
2022/07/08 00:44:39;;;;;;;10.43;2.08;;;;;;;16.88;60.53;102539.88;5034297;28;20049;-64
2022/07/08 00:47:06;;;;;;;12.50;2.85;;;;;;;17.12;60.00;102534.06;5013082;28;20421;-65
2022/07/08 00:49:34;;;;;;;19.35;2.83;;;;;;;16.98;60.06;102550.78;5060127;28;20060;-65
2022/07/08 00:52:02;;;;;;;12.40;2.55;;;;;;;16.54;61.23;102554.25;5039732;28;20058;-63
2022/07/08 00:54:29;;;;;;;12.18;2.25;;;;;;;16.77;61.23;102549.59;5016543;28;20057;-64
2022/07/08 00:56:57;;;;;;;11.98;2.20;;;;;;;16.67;61.23;102549.78;5026091;28;20052;-64
2022/07/08 00:59:26;;;;;;;12.20;2.40;;;;;;;16.83;60.40;102546.38;5030199;28;20049;-65
2022/07/08 01:01:53;;;;;;;9.25;2.25;;;;;;;16.92;60.01;102554.81;5034980;28;20041;-65
2022/07/08 01:04:20;;;;;;;13.68;2.20;;;;;;;16.85;60.09;102559.97;5038260;28;20500;-66
2022/07/08 01:06:47;;;;;;;10.60;2.03;;;;;;;16.43;60.98;102557.47;5039325;28;20060;-64
2022/07/08 01:09:15;;;;;;;13.43;2.45;;;;;;;16.47;61.10;102561.34;5034340;28;20046;-64
2022/07/08 01:11:46;;;;;;;11.70;2.58;;;;;;;16.33;61.58;102568.81;5033068;28;20124;-63
2022/07/08 01:14:17;;;;;;;13.20;1.90;;;;;;;16.03;62.57;102552.69;5032773;28;20064;-63
2022/07/08 01:16:44;;;;;;;13.30;2.95;;;;;;;16.35;62.05;102563.78;5020815;28;20046;-65
2022/07/08 01:19:11;;;;;;;13.40;2.13;;;;;;;16.55;61.37;102571.75;5027610;28;20063;-65
2022/07/08 01:21:39;;;;;;;10.98;2.67;;;;;;;16.53;61.33;102577.63;5027468;28;20061;-63
2022/07/08 01:24:06;;;;;;;15.95;3.40;;;;;;;16.25;61.80;102605.69;5021296;28;20041;-63
2022/07/08 01:26:33;;;;;;;11.95;2.53;;;;;;;16.22;62.01;102587.63;5047692;28;20050;-64
2022/07/08 01:29:01;;;;;;;11.80;2.20;;;;;;;16.21;62.28;102586.00;5032611;28;20057;-62
2022/07/08 01:31:28;;;;;;;13.52;2.38;;;;;;;16.12;62.56;102587.84;5024323;28;20057;-61
2022/07/08 01:33:56;;;;;;;11.30;2.20;;;;;;;16.00;62.68;102590.28;5027009;28;20061;-61
2022/07/08 01:36:23;;;;;;;13.98;2.13;;;;;;;15.92;63.51;102596.50;5027933;28;20543;-61
2022/07/08 01:38:50;;;;;;;12.75;2.78;;;;;;;16.12;62.81;102589.78;5031900;28;20060;-62
2022/07/08 01:41:18;;;;;;;13.45;2.30;;;;;;;16.24;62.16;102590.94;5032085;28;20052;-62
2022/07/08 01:43:45;;;;;;;16.75;2.60;;;;;;;16.17;62.13;102600.81;5023575;28;20054;-61
2022/07/08 01:46:12;;;;;;;12.32;2.40;;;;;;;16.26;62.05;102597.03;5031864;28;20377;-62
2022/07/08 01:48:40;;;;;;;13.48;2.60;;;;;;;15.99;63.04;102593.38;5034840;28;20440;-62
2022/07/08 01:51:08;;;;;;;14.02;2.67;;;;;;;16.11;62.94;102593.69;5032144;28;20057;-62
2022/07/08 01:53:35;;;;;;;12.98;2.70;;;;;;;15.93;63.34;102591.78;5033971;28;20053;-64
2022/07/08 01:56:03;;;;;;;14.13;2.60;;;;;;;15.71;64.17;102595.19;5042539;28;20073;-61
2022/07/08 01:58:30;;;;;;;13.18;2.45;;;;;;;15.69;64.56;102592.72;5040041;28;20049;-61
2022/07/08 02:00:58;;;;;;;14.00;3.00;;;;;;;15.95;63.90;102593.16;5065381;28;20062;-61
2022/07/08 02:03:25;;;;;;;11.75;2.22;;;;;;;16.01;63.38;102585.50;5028944;28;20060;-65
2022/07/08 02:05:53;;;;;;;14.95;2.88;;;;;;;15.76;63.97;102584.81;5044339;28;20416;-64
2022/07/08 02:08:23;;;;;;;19.17;2.78;;;;;;;15.52;64.76;102578.56;5036694;28;20041;-64
2022/07/08 02:13:36;;;;;;;13.23;2.40;;;;;;;15.67;64.21;102583.84;5047436;28;20064;-65
2022/07/08 02:16:04;;;;;;;13.52;2.30;;;;;;;15.68;64.39;102588.31;5049274;28;20069;-65
2022/07/08 02:18:32;;;;;;;15.70;2.45;;;;;;;15.68;64.29;102593.03;5039105;28;20049;-62
2022/07/08 02:21:00;;;;;;;12.88;2.80;;;;;;;15.73;64.05;102596.56;5037830;28;20064;-62
2022/07/08 02:23:27;;;;;;;11.98;2.15;;;;;;;15.52;64.65;102592.44;5030208;28;20061;-62
2022/07/08 02:25:55;;;;;;;15.60;3.20;;;;;;;15.56;64.54;102595.44;5026575;28;20061;-62
2022/07/08 02:28:22;;;;;;;15.73;2.25;;;;;;;15.25;65.56;102592.28;5017678;28;20046;-62
2022/07/08 02:30:49;;;;;;;16.45;2.92;;;;;;;15.41;65.33;102595.69;5007327;28;20050;-62
2022/07/08 02:33:17;;;;;;;15.25;2.72;;;;;;;15.49;65.14;102581.09;5035292;28;20053;-62
2022/07/08 02:35:44;;;;;;;18.65;3.30;;;;;;;15.57;64.90;102583.19;5036913;28;20049;-62
2022/07/08 02:38:12;;;;;;;17.02;2.20;;;;;;;15.58;64.60;102584.84;5032191;28;20049;-62
2022/07/08 02:40:39;;;;;;;14.75;2.95;;;;;;;15.72;64.38;102580.19;5022737;28;20140;-62
2022/07/08 02:43:10;;;;;;;9.40;2.53;;;;;;;15.62;64.23;102591.47;5022592;28;20054;-62
2022/07/08 02:45:38;;;;;;;11.30;2.63;;;;;;;15.40;65.50;102580.13;5032556;28;20860;-61
2022/07/08 02:48:06;;;;;;;14.73;2.75;;;;;;;15.64;64.70;102583.63;5037509;28;20065;-61
2022/07/08 02:50:34;;;;;;;16.42;3.35;;;;;;;15.18;66.04;102577.94;5036607;28;20072;-61
2022/07/08 02:53:01;;;;;;;16.20;2.80;;;;;;;15.35;65.79;102575.44;5017879;28;20054;-62
2022/07/08 02:55:28;;;;;;;16.33;3.38;;;;;;;15.65;65.11;102569.47;5012412;28;20058;-61
2022/07/08 02:57:55;;;;;;;14.23;2.80;;;;;;;15.66;64.83;102576.66;5027534;28;20524;-61
2022/07/08 03:00:23;;;;;;;15.20;2.90;;;;;;;15.74;64.57;102577.94;5021218;28;20053;-61
2022/07/08 03:02:50;;;;;;;11.90;2.85;;;;;;;15.46;65.48;102581.72;5034733;28;20511;-61
2022/07/08 03:05:18;;;;;;;15.18;3.22;;;;;;;15.33;65.50;102585.19;5038037;28;20049;-61
2022/07/08 03:07:45;;;;;;;15.25;3.05;;;;;;;15.07;66.74;102592.22;5020869;28;20042;-62
2022/07/08 03:10:12;;;;;;;13.73;2.65;;;;;;;14.77;67.91;102589.88;5031046;28;20058;-62
2022/07/08 03:12:40;;;;;;;13.77;2.88;;;;;;;14.85;67.84;102591.97;5029066;28;20056;-61
2022/07/08 03:15:08;;;;;;;16.13;2.83;;;;;;;15.03;67.23;102597.56;5051483;28;20049;-61
2022/07/08 03:17:35;;;;;;;21.10;3.65;;;;;;;15.25;66.17;102586.72;5035911;28;20045;-63
2022/07/08 03:20:04;;;;;;;12.98;2.60;;;;;;;15.16;66.37;102585.72;5028631;28;20065;-66
2022/07/08 03:22:33;;;;;;;17.77;2.95;;;;;;;15.08;66.44;102591.94;5023512;28;20412;-67
2022/07/08 03:25:01;;;;;;;18.73;2.92;;;;;;;15.21;66.44;102595.94;5021568;28;20054;-65
2022/07/08 03:27:28;;;;;;;15.13;2.65;;;;;;;15.36;65.96;102599.31;5027917;28;20432;-65
2022/07/08 03:29:55;;;;;;;15.40;3.28;;;;;;;15.52;65.51;102611.03;5031491;28;20068;-65
2022/07/08 03:32:23;;;;;;;17.70;3.25;;;;;;;15.73;64.51;102609.59;5036019;28;20076;-66
2022/07/08 03:34:50;;;;;;;14.20;2.35;;;;;;;15.48;65.05;102612.78;5022509;28;20064;-66
2022/07/08 03:37:18;;;;;;;15.32;2.92;;;;;;;15.27;65.52;102614.19;5026493;28;20053;-61
2022/07/08 03:39:46;;;;;;;13.93;2.85;;;;;;;15.15;66.34;102619.34;5061323;28;20062;-66
2022/07/08 03:42:14;;;;;;;14.45;2.60;;;;;;;15.19;66.12;102618.44;5026713;28;20060;-62
2022/07/08 03:44:41;;;;;;;15.43;2.72;;;;;;;15.18;66.16;102616.78;5035304;28;20049;-62
2022/07/08 03:47:08;;;;;;;19.20;3.00;;;;;;;15.10;66.09;102620.22;5028342;28;20058;-61
2022/07/08 03:49:36;;;;;;;15.63;2.92;;;;;;;15.19;66.21;102623.16;5033916;28;20417;-62
2022/07/08 03:52:04;;;;;;;16.58;3.53;;;;;;;15.09;66.41;102615.81;5038799;28;20068;-66
2022/07/08 03:54:31;;;;;;;15.20;2.60;;;;;;;14.99;66.72;102621.50;5036294;28;20049;-62
2022/07/08 03:56:59;;;;;;;23.73;3.47;;;;;;;15.06;66.47;102613.63;5035447;28;20508;-62
2022/07/08 03:59:26;;;;;;;14.43;3.17;;;;;;;15.20;66.40;102619.28;5035196;28;20068;-63
2022/07/08 04:01:53;;;;;;;12.32;2.25;;;;;;;15.45;65.27;102622.53;5054110;28;20061;-62
2022/07/08 04:04:21;;;;;;;15.15;2.97;;;;;;;15.53;65.18;102623.81;5021878;28;20515;-63
2022/07/08 04:06:49;;;;;;;12.98;2.53;;;;;;;15.55;64.91;102633.50;5022690;28;20061;-64
2022/07/08 04:09:16;;;;;;;13.05;2.58;;;;;;;15.60;64.93;102629.84;5016453;28;20054;-61
2022/07/08 04:11:43;;;;;;;11.60;3.25;;;;;;;15.21;65.83;102629.25;5029435;28;20049;-61
2022/07/08 04:14:10;;;;;;;13.60;2.33;;;;;;;14.97;66.94;102631.22;5033780;28;20045;-65
2022/07/08 04:16:38;;;;;;;20.05;3.10;;;;;;;14.95;67.29;102634.28;5032854;28;20061;-65
2022/07/08 04:19:06;;;;;;;20.45;3.00;;;;;;;15.21;66.75;102627.31;5034517;28;20050;-65
2022/07/08 04:21:33;;;;;;;17.92;2.80;;;;;;;15.39;65.92;102628.44;5034464;28;20053;-66
2022/07/08 04:24:01;;;;;;;16.98;2.97;;;;;;;15.34;65.81;102631.28;5034920;28;20044;-65
2022/07/08 04:26:31;;;;;;;16.77;2.78;;;;;;;15.18;66.28;102633.44;5019688;28;20066;-62
2022/07/08 04:28:59;;;;;;;12.50;2.63;;;;;;;15.42;65.87;102634.25;5024387;28;20053;-66
2022/07/08 04:31:27;;;;;;;20.05;3.42;;;;;;;15.57;65.43;102630.41;5034557;28;20053;-65
2022/07/08 04:33:55;;;;;;;16.85;3.30;;;;;;;15.06;65.88;102621.13;5049989;28;20499;-65
2022/07/08 04:36:23;;;;;;;14.10;3.15;;;;;;;15.18;66.19;102632.63;5030985;28;20049;-65
2022/07/08 04:38:50;;;;;;;19.48;3.38;;;;;;;15.34;65.61;102634.88;5028650;28;20060;-65
2022/07/08 04:41:17;;;;;;;18.33;2.90;;;;;;;15.54;64.96;102633.78;5035279;28;20679;-64
2022/07/08 04:43:45;;;;;;;12.45;3.30;;;;;;;15.48;65.05;102638.59;5066110;28;20041;-65
2022/07/08 04:46:13;;;;;;;17.52;3.92;;;;;;;15.19;65.57;102642.59;5018217;28;20064;-65
2022/07/08 04:48:41;;;;;;;17.13;2.50;;;;;;;15.27;65.77;102639.97;5028590;28;20053;-65
2022/07/08 04:51:08;;;;;;;13.27;3.10;;;;;;;14.99;66.50;102648.41;5026201;28;20068;-66
2022/07/08 04:53:36;;;;;;;16.70;3.30;;;;;;;15.15;66.25;102656.22;5031199;28;20053;-64
2022/07/08 04:56:04;;;;;;;16.65;3.35;;;;;;;15.08;66.38;102654.97;5051319;28;20522;-65
2022/07/08 04:58:31;;;;;;;18.40;2.80;;;;;;;15.19;66.02;102648.97;5037290;28;20444;-65
2022/07/08 05:00:59;;;;;;;21.23;3.50;;;;;;;15.36;65.79;102646.50;5040820;28;20061;-65
2022/07/08 05:03:26;;;;;;;14.98;3.10;;;;;;;15.65;64.71;102650.03;5028911;28;20057;-66
2022/07/08 05:06:01;;;;;;;18.02;3.25;;;;;;;15.76;63.88;102645.94;5028336;28;20448;-65
2022/07/08 05:08:28;;;;;;;15.82;3.33;;;;;;;15.71;63.82;102656.31;5022445;28;20045;-66
2022/07/08 05:10:56;;;;;;;17.75;3.45;;;;;;;15.54;64.22;102651.28;5055514;28;20053;-66
2022/07/08 05:13:24;;;;;;;19.48;3.38;;;;;;;15.44;64.26;102665.34;5032475;28;20061;-66
2022/07/08 05:15:51;;;;;;;16.88;3.17;;;;;;;15.66;63.97;102668.34;5034508;28;20056;-65
2022/07/08 05:18:19;;;;;;;18.45;3.92;;;;;;;15.78;63.97;102665.09;5021061;28;20064;-65
2022/07/08 05:20:47;;;;;;;14.48;3.28;;;;;;;15.84;63.89;102668.63;5032650;28;20098;-66
2022/07/08 05:23:14;;;;;;;18.27;3.30;;;;;;;15.97;63.42;102677.03;5034334;28;20136;-65
2022/07/08 05:25:41;;;;;;;17.33;3.28;;;;;;;15.71;63.70;102673.81;5034288;28;20045;-66
2022/07/08 05:28:09;;;;;;;14.82;2.47;;;;;;;15.83;63.55;102665.00;5034413;28;20057;-66
2022/07/08 05:30:36;;;;;;;20.15;3.30;;;;;;;15.95;63.29;102661.78;5033098;28;20060;-65
2022/07/08 05:33:03;;;;;;;19.75;3.63;;;;;;;15.99;63.27;102655.31;5035132;28;20600;-65
2022/07/08 05:35:31;;;;;;;21.33;3.13;;;;;;;16.00;63.25;102661.72;5037989;28;20283;-65
2022/07/08 05:37:58;;;;;;;21.13;3.47;;;;;;;16.15;62.95;102664.22;5030798;28;20054;-65
2022/07/08 05:40:25;;;;;;;16.20;3.30;;;;;;;16.08;62.77;102663.78;5025049;28;20058;-66
2022/07/08 05:42:53;;;;;;;14.07;3.50;;;;;;;16.09;62.70;102669.03;5030214;28;20619;-66
2022/07/08 05:45:20;;;;;;;13.57;3.35;;;;;;;16.10;62.95;102670.72;5037351;28;20049;-66
2022/07/08 05:47:47;;;;;;;13.80;4.43;;;;;;;16.21;62.39;102658.31;5034507;28;20057;-65
2022/07/08 05:50:15;;;;;;;20.05;3.80;;;;;;;16.26;62.47;102677.69;5036830;28;20149;-67
2022/07/08 05:52:42;;;;;;;18.17;4.35;;;;;;;16.17;61.84;102661.97;5037555;28;20058;-66
2022/07/08 05:55:09;;;;;;;20.27;4.13;;;;;;;16.10;62.32;102667.09;5037770;28;20057;-66
2022/07/08 05:57:37;;;;;;;18.45;3.30;;;;;;;16.04;62.46;102662.75;5027608;28;20049;-64
2022/07/08 06:00:05;;;;;;;22.85;3.47;;;;;;;15.99;62.38;102658.09;5033437;28;20060;-65
2022/07/08 06:02:38;;;;;;;16.33;3.75;;;;;;;15.81;63.10;102667.31;5034963;28;20046;-65
2022/07/08 06:05:06;;;;;;;27.70;3.65;;;;;;;15.72;63.06;102667.16;5032932;28;20488;-65
2022/07/08 06:07:33;;;;;;;17.17;3.63;;;;;;;15.82;63.16;102666.16;5034259;28;20384;-65
2022/07/08 06:10:00;;;;;;;20.83;4.15;;;;;;;15.87;63.13;102666.06;5034324;28;20056;-66
2022/07/08 06:12:28;;;;;;;19.48;3.40;;;;;;;16.14;62.65;102668.97;5039429;28;20045;-65
2022/07/08 06:14:55;;;;;;;21.35;3.88;;;;;;;16.14;62.27;102668.16;5033197;28;20045;-65
2022/07/08 06:17:23;;;;;;;21.80;4.03;;;;;;;15.93;62.50;102667.66;5038012;28;20053;-65
2022/07/08 06:19:50;;;;;;;31.90;3.78;;;;;;;16.25;62.22;102672.41;5036343;28;20397;-66
2022/07/08 06:22:18;;;;;;;24.10;4.45;;;;;;;16.29;61.77;102668.72;5036175;28;20404;-65
2022/07/08 06:24:45;;;;;;;18.02;3.03;;;;;;;16.17;61.56;102670.31;5027446;28;20060;-65
2022/07/08 06:27:12;;;;;;;19.27;3.30;;;;;;;16.08;61.90;102670.19;5031012;28;20058;-65
2022/07/08 06:29:40;;;;;;;16.77;3.20;;;;;;;16.25;62.00;102672.41;5028000;28;20795;-66
2022/07/08 06:32:07;;;;;;;21.25;3.85;;;;;;;16.45;61.24;102677.63;5028164;28;20053;-66
2022/07/08 06:34:35;;;;;;;15.80;2.60;;;;;;;16.54;60.17;102678.59;5031307;28;20059;-65
2022/07/08 06:37:03;;;;;;;17.00;4.10;;;;;;;16.61;59.93;102682.66;5046902;28;20045;-69
2022/07/08 06:39:30;;;;;;;16.77;3.50;;;;;;;17.14;65.24;102682.16;5034002;28;20893;-50
2022/07/08 06:41:57;;;;;;;18.02;3.22;;;;;;;16.57;59.96;102689.09;5050679;28;20053;-69
2022/07/08 06:44:25;;;;;;;25.63;4.50;;;;;;;16.67;60.20;102688.91;5029003;28;20041;-68
2022/07/08 06:46:53;;;;;;;22.98;3.95;;;;;;;16.72;60.09;102686.88;5018216;28;20602;-70
2022/07/08 06:49:20;;;;;;;21.98;4.47;;;;;;;17.01;61.57;102691.34;5032540;28;20042;-69
2022/07/08 06:51:47;;;;;;;15.98;3.95;;;;;;;16.96;59.22;102681.13;5045670;28;20054;-69
2022/07/08 06:57:01;;;;;;;25.65;4.85;;;;;;;16.83;59.79;102679.97;5038055;28;20045;-69
2022/07/08 06:59:29;;;;;;;17.50;3.95;;;;;;;17.08;59.84;102673.09;5049063;28;20049;-69
2022/07/08 07:02:16;;;;;;;20.05;4.57;;;;;;;17.52;60.44;102675.25;5039619;28;20053;-68
2022/07/08 07:04:44;;;;;;;22.15;3.88;;;;;;;17.58;58.47;102685.94;5035359;28;20055;-69
2022/07/08 07:07:12;;;;;;;18.00;4.65;;;;;;;17.06;58.41;102688.44;5028406;28;20050;-68
2022/07/08 07:09:46;;;;;;;20.70;4.78;;;;;;;17.38;58.64;102686.34;5032909;28;20065;-68
2022/07/08 07:12:14;;;;;;;19.63;4.85;;;;;;;17.32;57.66;102689.56;5031101;28;20053;-69
2022/07/08 07:14:42;;;;;;;22.50;4.38;;;;;;;16.97;59.09;102681.94;5035675;28;20542;-69
2022/07/08 07:17:09;;;;;;;17.35;4.70;;;;;;;17.28;58.36;102692.16;5028832;28;20608;-69
2022/07/08 07:19:37;;;;;;;15.77;4.75;;;;;;;17.08;58.17;102689.78;5043094;28;20435;-68
2022/07/08 07:22:04;;;;;;;20.83;4.88;;;;;;;17.11;57.78;102693.91;5041291;28;20049;-68
2022/07/08 07:24:31;;;;;;;23.77;4.30;;;;;;;17.40;57.21;102697.22;5034564;28;20057;-68
2022/07/08 07:26:59;;;;;;;15.75;4.80;;;;;;;17.55;56.67;102692.16;5048086;28;20076;-69
2022/07/08 07:29:26;;;;;;;17.08;5.68;;;;;;;17.86;55.78;102684.75;5031569;28;20045;-68
2022/07/08 07:31:53;;;;;;;16.35;5.00;;;;;;;18.25;54.58;102692.44;5042162;28;20048;-68
2022/07/08 07:34:21;;;;;;;26.77;5.25;;;;;;;18.21;54.30;102682.22;5036506;28;20068;-69
2022/07/08 07:36:48;;;;;;;21.58;5.00;;;;;;;18.35;53.32;102686.59;5063980;28;20061;-66
2022/07/08 07:39:23;;;;;;;19.75;4.70;;;;;;;18.43;52.58;102688.63;5030722;28;20200;-68
2022/07/08 07:41:50;;;;;;;17.95;4.90;;;;;;;18.78;52.34;102698.88;5041084;28;20056;-67
2022/07/08 07:44:18;;;;;;;23.52;4.45;;;;;;;19.26;51.89;102684.09;5045952;28;20056;-69
2022/07/08 07:46:46;;;;;;;17.60;4.22;;;;;;;19.56;50.07;102686.03;5043376;28;20045;-67
2022/07/08 07:49:13;;;;;;;14.05;4.57;;;;;;;19.46;50.10;102695.53;5035988;28;20044;-66
2022/07/08 07:51:41;;;;;;;23.60;4.60;;;;;;;20.12;48.20;102689.50;5030539;28;20424;-69
2022/07/08 07:54:08;;;;;;;16.42;3.72;;;;;;;19.97;49.14;102692.81;5038515;28;20048;-66
2022/07/08 07:56:36;;;;;;;18.30;3.92;;;;;;;20.35;48.31;102686.53;5030363;28;20057;-68
2022/07/08 07:59:03;;;;;;;15.48;4.75;;;;;;;20.35;47.97;102683.72;5045322;28;20056;-67
2022/07/08 08:01:31;;;;;;;18.65;4.22;;;;;;;20.37;47.31;102671.06;5040055;28;20045;-68
2022/07/08 08:03:58;;;;;;;20.60;5.20;;;;;;;20.29;47.45;102673.88;5044142;28;20064;-68
2022/07/08 08:06:28;;;;;;;12.95;3.95;;;;;;;20.65;47.26;102671.47;5029813;28;20041;-67
2022/07/08 08:08:57;;;;;;;21.77;4.30;;;;;;;20.85;46.29;102674.38;5025904;28;20129;-66
2022/07/08 08:11:25;;;;;;;16.08;4.15;;;;;;;20.45;46.18;102678.59;5021130;28;20045;-67
2022/07/08 08:13:53;;;;;;;19.60;4.40;;;;;;;19.96;47.60;102677.16;5032050;28;20050;-66
2022/07/08 08:16:21;;;;;;;15.00;3.50;;;;;;;20.05;48.04;102682.75;5037715;28;20134;-67
2022/07/08 08:18:48;;;;;;;23.23;4.03;;;;;;;20.30;48.06;102681.94;5047130;28;20537;-67
2022/07/08 08:21:16;;;;;;;19.08;4.32;;;;;;;19.71;48.59;102674.34;5031079;28;20232;-67
2022/07/08 08:23:44;;;;;;;15.43;4.20;;;;;;;19.55;49.04;102682.41;5021604;28;20445;-68
2022/07/08 08:26:12;;;;;;;14.55;3.83;;;;;;;19.02;50.21;102673.34;5041691;28;20071;-68
2022/07/08 08:28:39;;;;;;;15.60;3.90;;;;;;;19.25;49.86;102674.09;4999861;28;20068;-68
2022/07/08 08:31:07;;;;;;;20.45;4.43;;;;;;;19.86;48.52;102671.91;5027976;28;20053;-67
2022/07/08 08:33:34;;;;;;;13.32;4.45;;;;;;;19.08;49.71;102677.63;5038565;28;20061;-66
2022/07/08 08:36:02;;;;;;;16.23;3.90;;;;;;;19.22;49.86;102669.97;5028917;28;20491;-66
2022/07/08 08:38:29;;;;;;;24.67;4.55;;;;;;;19.57;49.29;102666.13;5031761;28;20060;-66
2022/07/08 08:41:01;;;;;;;20.95;4.00;;;;;;;19.76;48.40;102663.84;5030393;28;20049;-65
2022/07/08 08:43:29;;;;;;;16.35;4.25;;;;;;;19.42;48.74;102658.19;5028451;28;20068;-67
2022/07/08 08:45:56;;;;;;;20.35;4.75;;;;;;;19.36;49.09;102662.31;5035268;28;20056;-66
2022/07/08 08:48:25;;;;;;;18.05;4.45;;;;;;;19.14;49.18;102667.97;5038797;28;20050;-66
2022/07/08 08:50:54;;;;;;;17.00;4.57;;;;;;;19.22;49.75;102658.78;5032455;28;20061;-66
2022/07/08 08:53:28;;;;;;;14.73;4.83;;;;;;;18.59;50.10;102659.19;5037956;28;20055;-66
2022/07/08 08:55:57;;;;;;;23.48;4.95;;;;;;;18.42;51.12;102661.91;5040683;28;20302;-65
2022/07/08 08:58:25;;;;;;;15.90;5.00;;;;;;;18.64;51.06;102661.84;5042947;28;20443;-65
2022/07/08 09:00:52;;;;;;;17.00;4.05;;;;;;;18.92;50.14;102652.13;5037886;28;20080;-65
2022/07/08 09:03:20;;;;;;;18.42;4.97;;;;;;;18.49;50.46;102653.88;5047569;28;20060;-65
2022/07/08 09:05:48;;;;;;;12.80;4.03;;;;;;;18.33;51.39;102658.19;5030620;28;20061;-67
2022/07/08 09:08:15;;;;;;;19.17;4.75;;;;;;;18.85;50.72;102646.19;5038647;28;20052;-65
2022/07/08 09:10:43;;;;;;;13.20;4.65;;;;;;;19.12;48.67;102645.13;5044216;28;20049;-65
2022/07/08 09:13:12;;;;;;;19.88;3.78;;;;;;;19.38;48.05;102645.22;5034424;28;20050;-66
2022/07/08 09:15:42;;;;;;;17.65;4.18;;;;;;;19.06;48.87;102640.81;5036409;28;20053;-65
2022/07/08 09:18:11;;;;;;;23.50;5.10;;;;;;;18.91;48.07;102639.31;5023652;28;20045;-66
2022/07/08 09:20:48;;;;;;;24.25;4.03;;;;;;;18.86;49.46;102635.84;5032859;28;20045;-66
2022/07/08 09:23:19;;;;;;;17.38;4.35;;;;;;;19.25;49.04;102632.97;5034490;28;20045;-66
2022/07/08 09:25:52;;;;;;;16.85;4.68;;;;;;;19.42;48.94;102635.03;5045398;28;20433;-67
2022/07/08 09:28:32;;;;;;;13.70;3.97;;;;;;;19.57;47.95;102631.75;5051308;28;20071;-65
2022/07/08 09:31:02;;;;;;;14.45;4.25;;;;;;;19.51;46.77;102627.47;5035348;28;20049;-66
2022/07/08 09:33:30;;;;;;;16.08;4.32;;;;;;;19.49;47.34;102619.41;5033469;28;20057;-66
2022/07/08 09:36:00;;;;;;;20.27;4.03;;;;;;;19.43;48.12;102617.09;5046808;28;20054;-65
2022/07/08 09:38:29;;;;;;;11.77;3.72;;;;;;;19.45;47.96;102615.63;5045011;28;20128;-65
2022/07/08 09:41:04;;;;;;;21.60;4.47;;;;;;;19.33;47.58;102623.00;5047913;28;20045;-65
2022/07/08 09:43:33;;;;;;;18.08;4.03;;;;;;;19.57;46.78;102613.00;5044758;28;20056;-66
2022/07/08 09:46:09;;;;;;;10.27;3.60;;;;;;;19.66;45.75;102618.59;5032655;28;20056;-66
2022/07/08 09:48:36;;;;;;;16.23;3.80;;;;;;;19.65;46.62;102622.56;5036551;28;20053;-66
2022/07/08 09:51:10;;;;;;;15.75;3.90;;;;;;;19.20;46.63;102615.53;5044950;28;20049;-62
2022/07/08 09:53:39;;;;;;;22.42;4.68;;;;;;;19.28;46.81;102623.13;5038621;28;20060;-61
2022/07/08 09:56:07;;;;;;;14.75;4.20;;;;;;;19.32;46.66;102619.38;5041100;28;20060;-62
2022/07/08 09:58:36;;;;;;;14.20;4.15;;;;;;;19.04;48.15;102621.59;5040499;28;20063;-63
2022/07/08 10:01:04;;;;;;;20.45;5.07;;;;;;;19.40;47.64;102626.13;5030728;28;20049;-62
2022/07/08 10:03:32;;;;;;;16.23;4.30;;;;;;;19.57;46.89;102623.34;5039601;28;20057;-56
2022/07/08 10:06:02;;;;;;;14.93;4.22;;;;;;;19.72;46.38;102618.09;5038452;28;20052;-63
2022/07/08 10:08:29;;;;;;;13.00;4.60;;;;;;;19.87;46.35;102622.38;5008470;28;20440;-63
2022/07/08 10:10:57;;;;;;;14.38;3.55;;;;;;;19.97;44.64;102614.47;5036074;28;20041;-63
2022/07/08 10:13:28;;;;;;;12.85;3.83;;;;;;;20.08;44.68;102621.34;5042627;28;20049;-63
2022/07/08 10:16:00;;;;;;;15.10;3.63;;;;;;;20.21;44.66;102619.56;5047683;28;20056;-64
2022/07/08 10:18:35;;;;;;;11.98;3.72;;;;;;;20.33;43.27;102611.28;5045342;28;20041;-64
2022/07/08 10:21:05;;;;;;;13.43;3.90;;;;;;;20.27;43.55;102609.84;5041205;28;20080;-64
2022/07/08 10:23:44;;;;;;;13.77;4.05;;;;;;;20.02;41.82;102610.66;5039184;28;20095;-62
2022/07/08 10:26:12;;;;;;;14.25;3.72;;;;;;;19.88;42.84;102610.03;5038112;28;20376;-62
2022/07/08 10:28:41;;;;;;;15.10;3.30;;;;;;;19.89;42.56;102609.69;5014462;28;20046;-62
2022/07/08 10:31:22;;;;;;;11.23;3.28;;;;;;;19.88;42.72;102599.66;5022362;28;20045;-65
2022/07/08 10:33:51;;;;;;;14.98;3.28;;;;;;;20.00;42.53;102611.00;5042663;28;20388;-66
2022/07/08 10:36:22;;;;;;;13.68;3.90;;;;;;;20.05;42.06;102612.78;5032203;28;20053;-67
2022/07/08 10:38:50;;;;;;;13.15;4.78;;;;;;;20.24;42.12;102607.72;5046375;28;20053;-65
2022/07/08 10:41:25;;;;;;;13.02;3.72;;;;;;;20.39;41.32;102611.94;5033543;28;20049;-65
2022/07/08 10:43:54;;;;;;;11.27;3.40;;;;;;;20.69;41.06;102605.25;5042714;28;20059;-64
2022/07/08 10:46:24;;;;;;;13.23;3.67;;;;;;;20.79;41.52;102597.28;5035945;28;20054;-65
2022/07/08 10:48:59;;;;;;;10.43;3.38;;;;;;;20.98;41.65;102605.25;5036449;28;20050;-61
2022/07/08 10:51:28;;;;;;;10.18;3.75;;;;;;;20.70;41.60;102598.47;5037837;28;20416;-60
2022/07/08 10:54:24;;;;;;;14.90;3.50;;;;;;;20.56;41.85;102590.31;5048989;28;20056;-64
2022/07/08 10:56:58;;;;;;;21.33;3.97;;;;;;;20.64;41.88;102602.63;5025615;28;20061;-65
2022/07/08 10:59:26;;;;;;;12.85;3.33;;;;;;;20.86;41.06;102603.19;5030909;28;20049;-64
2022/07/08 11:02:15;;;;;;;14.75;3.40;;;;;;;20.90;41.58;102589.34;5031593;28;20439;-64
2022/07/08 11:04:44;;;;;;;15.30;3.70;;;;;;;20.65;41.65;102596.69;5037458;28;20064;-64
2022/07/08 11:07:14;;;;;;;7.75;3.17;;;;;;;20.75;41.90;102596.31;5018652;28;20038;-65
2022/07/08 11:09:44;;;;;;;15.27;3.47;;;;;;;20.81;41.06;102597.78;5039286;28;20053;-64
2022/07/08 11:12:15;;;;;;;15.02;3.35;;;;;;;20.96;41.13;102590.75;5039466;28;20049;-65
2022/07/08 11:14:45;;;;;;;8.63;3.00;;;;;;;20.74;41.21;102589.09;5032924;28;20053;-65
2022/07/08 11:17:16;;;;;;;14.77;3.97;;;;;;;20.80;41.06;102586.91;5028818;28;20409;-64
2022/07/08 11:19:45;;;;;;;10.98;2.92;;;;;;;21.04;40.52;102582.34;5061483;28;20057;-64
2022/07/08 11:22:12;;;;;;;12.70;3.20;;;;;;;21.04;40.04;102578.72;5038380;28;20046;-64
2022/07/08 11:24:52;;;;;;;12.25;2.90;;;;;;;21.14;39.88;102581.97;5037682;28;20045;-65
2022/07/08 11:27:28;;;;;;;9.63;2.83;;;;;;;21.39;39.07;102582.94;5030607;28;20121;-65